Time;durP1;ratioP1;P1;durP2;ratioP2;P2;SDS_P1;SDS_P2;PMS_P1;PMS_P2;Temp;Humidity;BMP_temperature;BMP_pressure;BME280_temperature;BME280_humidity;BME280_pressure;Samples;Min_cycle;Max_cycle;Signal;HPM_P1;HPM_P2
2021/08/08 00:00:27;;;;;;;;;2.00;2.00;;;;;17.35;58.70;100621.53;5106099;27;47334;-90
2021/08/08 00:02:53;;;;;;;;;2.00;1.00;;;;;17.34;58.53;100627.75;5112944;27;45676;-90
2021/08/08 00:05:18;;;;;;;;;2.33;2.00;;;;;17.34;58.39;100625.13;5096679;27;45306;-91
2021/08/08 00:07:44;;;;;;;;;1.00;1.00;;;;;17.34;58.34;100630.38;5079913;27;44784;-90
2021/08/08 00:10:12;;;;;;;;;4.00;1.00;;;;;17.28;58.94;100642.16;5089546;27;48037;-91
2021/08/08 00:12:38;;;;;;;;;2.67;2.00;;;;;17.22;58.74;100638.13;5099831;27;45287;-90
2021/08/08 00:15:05;;;;;;;;;4.00;2.00;;;;;17.18;59.26;100628.75;5116111;27;45558;-91
2021/08/08 00:17:32;;;;;;;;;2.00;2.00;;;;;17.16;59.31;100638.53;5100273;27;45361;-90
2021/08/08 00:19:57;;;;;;;;;2.33;2.33;;;;;17.13;59.16;100641.38;5099469;27;47461;-91
2021/08/08 00:22:22;;;;;;;;;2.67;2.00;;;;;17.15;58.78;100646.53;5099682;27;45394;-90
2021/08/08 00:24:48;;;;;;;;;3.25;1.50;;;;;17.08;59.29;100639.03;5108259;27;45395;-92
2021/08/08 00:27:13;;;;;;;;;1.33;1.33;;;;;17.07;59.03;100641.75;5098643;27;45460;-91
2021/08/08 00:29:39;;;;;;;;;3.00;2.00;;;;;17.04;59.11;100641.97;5091956;27;47033;-91
2021/08/08 00:32:05;;;;;;;;;5.00;2.33;;;;;17.01;59.58;100645.63;5079151;27;45793;-91
2021/08/08 00:34:30;;;;;;;;;3.50;1.75;;;;;17.01;59.69;100637.75;5099008;27;45457;-91
2021/08/08 00:36:56;;;;;;;;;3.50;1.00;;;;;16.98;59.84;100645.81;5118308;27;45205;-91
2021/08/08 00:39:21;;;;;;;;;1.00;1.00;;;;;16.94;59.44;100652.22;5098215;27;48394;-91
2021/08/08 00:41:47;;;;;;;;;1.00;1.00;;;;;16.87;60.17;100653.53;5118109;27;45300;-90
2021/08/08 00:44:13;;;;;;;;;3.00;2.00;;;;;16.81;60.40;100654.78;5116506;27;45535;-91
2021/08/08 00:46:44;;;;;;;;;2.75;1.00;;;;;16.73;60.26;100643.91;5092949;27;45680;-91
2021/08/08 00:49:10;;;;;;;;;3.50;2.25;;;;;16.72;60.36;100647.47;5078899;27;47387;-90
2021/08/08 00:51:36;;;;;;;;;3.00;2.75;;;;;16.70;60.90;100643.19;5078205;27;45647;-91
2021/08/08 00:54:02;;;;;;;;;3.33;2.00;;;;;16.70;60.50;100639.69;5096063;27;45359;-90
2021/08/08 00:56:29;;;;;;;;;2.33;2.33;;;;;16.66;60.91;100635.59;5086265;27;45527;-90
2021/08/08 00:58:55;;;;;;;;;3.00;1.67;;;;;16.63;60.95;100644.50;5117279;27;46351;-91
2021/08/08 01:01:26;;;;;;;;;2.67;2.00;;;;;16.61;60.81;100643.75;5121089;27;45590;-90
2021/08/08 01:03:53;;;;;;;;;2.00;2.00;;;;;16.59;61.25;100650.88;5103009;27;44779;-91
2021/08/08 01:06:29;;;;;;;;;3.00;3.00;;;;;16.55;60.79;100652.88;5102141;27;45457;-90
2021/08/08 01:09:01;;;;;;;;;3.00;2.00;;;;;16.51;61.29;100655.75;5091042;27;47370;-90
2021/08/08 01:11:27;;;;;;;;;3.75;2.00;;;;;16.40;61.09;100641.50;5104785;27;45209;-91
2021/08/08 01:13:53;;;;;;;;;2.00;1.50;;;;;16.41;61.60;100661.63;5102511;27;45517;-91
2021/08/08 01:16:21;;;;;;;;;3.00;3.00;;;;;16.32;61.81;100653.44;5102732;27;45656;-91
2021/08/08 01:18:47;;;;;;;;;2.50;2.50;;;;;16.30;61.50;100656.19;5097732;27;48600;-91
2021/08/08 01:21:13;;;;;;;;;3.00;3.00;;;;;16.28;62.11;100658.03;5081285;27;45938;-91
2021/08/08 01:23:41;;;;;;;;;3.00;3.00;;;;;16.27;62.05;100653.72;5100534;27;44932;-90
2021/08/08 01:26:07;;;;;;;;;6.50;4.00;;;;;16.25;61.86;100656.44;5100328;27;45435;-90
2021/08/08 01:28:33;;;;;;;;;3.50;3.00;;;;;16.22;62.49;100659.28;5108577;27;45510;-90
2021/08/08 01:30:58;;;;;;;;;4.75;3.75;;;;;16.15;62.18;100648.28;5120602;27;45525;-91
2021/08/08 01:33:24;;;;;;;;;4.50;3.00;;;;;16.16;62.57;100657.84;5102267;27;45457;-90
2021/08/08 01:35:52;;;;;;;;;4.75;3.00;;;;;16.14;62.27;100661.50;5120953;27;45446;-91
2021/08/08 01:38:20;;;;;;;;;3.50;2.50;;;;;16.12;62.91;100664.22;5096767;27;48255;-90
2021/08/08 01:40:57;;;;;;;;;5.00;3.00;;;;;16.11;62.98;100664.34;5096942;27;45599;-90
2021/08/08 01:43:28;;;;;;;;;3.00;3.00;;;;;16.11;62.76;100667.78;5100136;27;45393;-90
2021/08/08 01:46:03;;;;;;;;;7.00;3.75;;;;;16.12;62.74;100666.84;5098952;27;45627;-90
2021/08/08 01:48:31;;;;;;;;;1.75;1.50;;;;;16.14;62.88;100661.50;5099775;27;45446;-90
2021/08/08 01:50:58;;;;;;;;;2.00;2.00;;;;;16.16;62.83;100668.34;5097289;27;45540;-90
2021/08/08 01:53:25;;;;;;;;;3.00;3.00;;;;;16.20;63.05;100669.00;5099957;27;45378;-91
2021/08/08 01:55:50;;;;;;;;;0.00;0.00;;;;;16.21;63.04;100675.09;5098752;27;45438;-90
2021/08/08 01:58:16;;;;;;;;;2.33;2.33;;;;;16.23;63.14;100670.59;5089159;27;46698;-90
2021/08/08 02:00:42;;;;;;;;;2.67;2.67;;;;;16.27;62.70;100672.09;5080389;27;45410;-91
2021/08/08 02:03:09;;;;;;;;;2.67;2.67;;;;;16.26;62.99;100662.56;5078231;28;45296;-90
2021/08/08 02:05:37;;;;;;;;;2.00;2.00;;;;;16.28;62.59;100666.78;5078643;28;45320;-90
2021/08/08 02:08:03;;;;;;;;;4.00;3.00;;;;;16.28;62.82;100673.78;5079221;27;46279;-91
2021/08/08 02:10:29;;;;;;;;;3.33;1.33;;;;;16.26;62.61;100676.50;5096593;27;46033;-90
2021/08/08 02:12:54;;;;;;;;;1.67;0.00;;;;;16.29;62.36;100680.72;5115811;27;45378;-91
2021/08/08 02:15:20;;;;;;;;;4.00;2.00;;;;;16.26;62.49;100675.69;5098563;27;45429;-90
2021/08/08 02:17:45;;;;;;;;;4.33;2.67;;;;;16.25;62.83;100674.00;5099423;27;45747;-91
2021/08/08 02:20:15;;;;;;;;;2.33;2.00;;;;;16.23;62.75;100673.22;5115538;27;45506;-90
2021/08/08 02:22:41;;;;;;;;;3.33;3.00;;;;;16.26;62.69;100673.88;5097268;27;45264;-91
2021/08/08 02:25:07;;;;;;;;;4.00;3.00;;;;;16.31;62.69;100684.13;5098531;27;45519;-90
2021/08/08 02:27:33;;;;;;;;;3.25;3.00;;;;;16.30;62.51;100685.06;5097600;27;47004;-91
2021/08/08 02:29:58;;;;;;;;;2.00;2.00;;;;;16.25;62.69;100680.06;5097987;27;45628;-90
2021/08/08 02:32:23;;;;;;;;;2.25;2.25;;;;;16.27;62.61;100682.63;5095647;27;46175;-90
2021/08/08 02:34:49;;;;;;;;;3.25;3.00;;;;;16.26;62.73;100686.19;5099509;27;45413;-91
2021/08/08 02:37:14;;;;;;;;;4.25;3.00;;;;;16.27;62.75;100693.97;5099248;27;45416;-91
2021/08/08 02:39:40;;;;;;;;;3.50;2.50;;;;;16.28;62.67;100687.78;5095756;27;45545;-90
2021/08/08 02:42:05;;;;;;;;;2.00;2.00;;;;;16.30;62.60;100698.19;5115263;27;45390;-90
2021/08/08 02:44:31;;;;;;;;;2.50;2.00;;;;;16.28;62.80;100694.78;5079913;27;45428;-90
2021/08/08 02:46:56;;;;;;;;;2.25;2.25;;;;;16.30;62.68;100703.44;5099032;27;45478;-91
2021/08/08 02:49:22;;;;;;;;;3.75;3.00;;;;;16.29;63.01;100705.22;5099080;27;45379;-90
2021/08/08 02:51:48;;;;;;;;;2.00;2.00;;;;;16.32;62.21;100706.81;5098053;27;45303;-91
2021/08/08 02:54:14;;;;;;;;;4.00;2.50;;;;;16.34;62.61;100706.72;5097127;27;45521;-91
2021/08/08 02:56:42;;;;;;;;;2.50;2.00;;;;;16.32;62.78;100698.06;5098958;27;45344;-91
2021/08/08 02:59:08;;;;;;;;;3.00;3.00;;;;;16.34;62.79;100701.47;5098382;27;45453;-90
2021/08/08 03:01:34;;;;;;;;;5.00;2.75;;;;;16.36;62.64;100700.44;5098858;27;45341;-91
2021/08/08 03:04:00;;;;;;;;;4.00;4.00;;;;;16.33;62.92;100703.25;5096279;27;45436;-91
2021/08/08 03:06:25;;;;;;;;;4.00;2.00;;;;;16.34;62.71;100704.91;5099005;27;45417;-91
2021/08/08 03:08:51;;;;;;;;;5.00;3.00;;;;;16.38;62.51;100705.59;5114222;27;45524;-91
2021/08/08 03:11:18;;;;;;;;;2.00;2.00;;;;;16.39;62.97;100708.13;5114836;27;45444;-91
2021/08/08 03:13:44;;;;;;;;;2.67;2.00;;;;;16.36;62.54;100707.47;5097426;27;45487;-90
2021/08/08 03:16:09;;;;;;;;;2.00;2.00;;;;;16.39;62.60;100707.28;5108979;27;47093;-90
2021/08/08 03:18:35;;;;;;;;;2.00;2.00;;;;;16.37;62.62;100707.38;5110766;27;45449;-91
2021/08/08 03:21:01;;;;;;;;;5.00;2.33;;;;;16.41;62.85;100716.75;5077209;27;45273;-91
2021/08/08 03:23:26;;;;;;;;;3.00;3.00;;;;;16.39;62.62;100717.78;5093304;27;45418;-91
2021/08/08 03:25:52;;;;;;;;;3.00;2.00;;;;;16.37;62.71;100722.28;5084592;27;47108;-91
2021/08/08 03:28:17;;;;;;;;;5.33;3.00;;;;;16.36;62.68;100717.97;5114212;27;45550;-91
2021/08/08 03:30:43;;;;;;;;;1.33;1.33;;;;;16.35;63.08;100719.75;5089665;27;45413;-91
2021/08/08 03:33:08;;;;;;;;;6.75;3.00;;;;;16.32;62.60;100721.72;5078480;27;45387;-90
2021/08/08 03:35:34;;;;;;;;;3.25;3.25;;;;;16.25;62.90;100718.63;5093732;27;48099;-90
2021/08/08 03:37:59;;;;;;;;;2.00;2.00;;;;;16.24;63.16;100712.53;5095722;27;45868;-90
2021/08/08 03:40:25;;;;;;;;;4.75;3.25;;;;;16.21;63.08;100719.75;5119247;27;45433;-90
2021/08/08 03:42:50;;;;;;;;;3.75;2.75;;;;;16.21;62.86;100727.63;5119042;27;45322;-90
2021/08/08 03:45:16;;;;;;;;;4.75;3.75;;;;;16.14;62.88;100733.25;5108290;27;45765;-92
2021/08/08 03:47:41;;;;;;;;;7.25;3.25;;;;;16.07;63.17;100725.81;5085557;27;45776;-90
2021/08/08 03:50:07;;;;;;;;;7.50;3.00;;;;;16.03;63.25;100720.75;5096932;27;45391;-92
2021/08/08 03:52:33;;;;;;;;;8.00;4.00;;;;;16.06;63.30;100732.00;5097317;27;45314;-91
2021/08/08 03:54:58;;;;;;;;;4.75;4.00;;;;;16.02;63.13;100733.97;5079711;27;46264;-90
2021/08/08 03:57:24;;;;;;;;;3.00;2.50;;;;;15.93;63.43;100734.50;5080842;27;45879;-91
2021/08/08 03:59:49;;;;;;;;;3.25;3.00;;;;;15.90;63.59;100733.72;5079697;27;45343;-91
2021/08/08 04:02:15;;;;;;;;;5.00;3.75;;;;;15.92;63.49;100736.25;5098093;27;45257;-90
2021/08/08 04:04:41;;;;;;;;;6.00;5.25;;;;;15.89;63.59;100737.25;5096603;27;47338;-91
2021/08/08 04:07:06;;;;;;;;;9.50;5.00;;;;;15.85;63.63;100727.03;5096537;27;45678;-91
2021/08/08 04:09:32;;;;;;;;;4.50;3.50;;;;;15.89;63.72;100737.25;5100548;27;45493;-90
2021/08/08 04:11:57;;;;;;;;;5.50;4.00;;;;;15.91;63.36;100739.81;5100375;27;45742;-91
2021/08/08 04:14:22;;;;;;;;;4.00;3.00;;;;;15.86;63.49;100728.72;5118083;27;45769;-91
2021/08/08 04:16:48;;;;;;;;;5.00;3.50;;;;;15.88;63.41;100734.75;5099040;27;45585;-91
2021/08/08 04:19:13;;;;;;;;;4.00;4.00;;;;;15.92;63.39;100740.66;5112659;27;45611;-91
2021/08/08 04:21:39;;;;;;;;;5.50;4.25;;;;;15.88;63.46;100740.00;5079807;27;45454;-92
2021/08/08 04:24:05;;;;;;;;;4.75;3.00;;;;;15.86;63.54;100732.22;5096613;27;47031;-91
2021/08/08 04:26:30;;;;;;;;;5.00;3.67;;;;;15.88;63.42;100745.25;5097588;27;45343;-92
2021/08/08 04:28:56;;;;;;;;;3.50;3.00;;;;;15.90;63.68;100757.34;5078537;27;45391;-91
2021/08/08 04:31:21;;;;;;;;;7.00;5.00;;;;;15.92;63.56;100751.16;5117872;27;45525;-90
2021/08/08 04:33:47;;;;;;;;;4.25;4.00;;;;;15.88;63.48;100763.63;5099143;27;47484;-91
2021/08/08 04:36:12;;;;;;;;;3.75;3.75;;;;;15.82;63.56;100759.56;5118312;27;45272;-91
2021/08/08 04:38:40;;;;;;;;;6.50;5.00;;;;;15.80;63.62;100757.94;5116486;27;45278;-91
2021/08/08 04:41:05;;;;;;;;;7.25;4.75;;;;;15.81;63.43;100767.50;5111524;27;45628;-90
2021/08/08 04:43:31;;;;;;;;;4.00;4.00;;;;;15.81;63.64;100762.25;5079028;27;47011;-91
2021/08/08 04:45:56;;;;;;;;;7.00;4.75;;;;;15.79;63.61;100765.00;5097334;27;45356;-91
2021/08/08 04:48:22;;;;;;;;;5.00;3.75;;;;;15.74;63.08;100761.78;5096058;27;45475;-91
2021/08/08 04:50:48;;;;;;;;;3.25;3.00;;;;;15.72;63.22;100768.88;5080423;27;45423;-91
2021/08/08 04:53:17;;;;;;;;;7.00;5.33;;;;;15.70;63.33;100773.38;5078759;27;47097;-91
2021/08/08 04:55:44;;;;;;;;;2.33;2.00;;;;;15.69;63.51;100763.84;5078644;27;45323;-91
2021/08/08 04:58:09;;;;;;;;;3.67;2.67;;;;;15.68;63.37;100767.38;5078718;27;45278;-91
2021/08/08 05:00:35;;;;;;;;;6.33;3.33;;;;;15.69;63.43;100769.09;5078992;27;45224;-91
2021/08/08 05:03:01;;;;;;;;;5.33;5.00;;;;;15.69;63.29;100779.56;5090809;27;47143;-91
2021/08/08 05:05:27;;;;;;;;;3.67;3.67;;;;;15.65;63.02;100772.81;5078877;27;45614;-91
2021/08/08 05:07:53;;;;;;;;;6.67;3.33;;;;;15.63;63.18;100771.13;5078874;27;45439;-90
2021/08/08 05:10:18;;;;;;;;;4.67;3.67;;;;;15.63;63.36;100770.25;5106518;27;45548;-89
2021/08/08 05:12:44;;;;;;;;;2.33;2.33;;;;;15.68;63.17;100781.34;5107717;27;46828;-91
2021/08/08 05:15:11;;;;;;;;;5.00;3.00;;;;;15.67;63.13;100771.78;5097102;27;45446;-91
2021/08/08 05:17:37;;;;;;;;;3.67;3.00;;;;;15.72;63.18;100779.38;5078521;27;45431;-90
2021/08/08 05:20:04;;;;;;;;;9.75;5.00;;;;;15.72;63.16;100780.25;5078556;27;45304;-91
2021/08/08 05:22:30;;;;;;;;;4.75;4.25;;;;;15.75;63.11;100779.22;5079448;27;47547;-91
2021/08/08 05:24:55;;;;;;;;;6.33;4.33;;;;;15.77;62.89;100779.97;5098831;27;45418;-91
2021/08/08 05:27:20;;;;;;;;;5.00;2.67;;;;;15.77;63.45;100774.72;5117376;27;45668;-91
2021/08/08 05:29:46;;;;;;;;;6.00;5.00;;;;;15.82;62.88;100777.94;5117689;27;45221;-90
2021/08/08 05:32:11;;;;;;;;;3.33;3.33;;;;;15.83;62.57;100776.16;5117351;27;45607;-90
2021/08/08 05:34:37;;;;;;;;;6.00;3.00;;;;;15.81;62.70;100772.75;5086682;27;45410;-91
2021/08/08 05:37:03;;;;;;;;;5.75;3.75;;;;;15.86;62.47;100771.56;5097004;27;44731;-90
2021/08/08 05:39:29;;;;;;;;;3.33;3.00;;;;;15.84;62.72;100768.16;5078445;27;45444;-91
2021/08/08 05:41:54;;;;;;;;;6.67;4.00;;;;;15.89;62.50;100783.69;5109722;27;46524;-90
2021/08/08 05:44:20;;;;;;;;;11.00;5.33;;;;;15.94;62.55;100783.44;5111690;27;45388;-91
2021/08/08 05:46:45;;;;;;;;;4.67;3.00;;;;;15.94;62.50;100780.81;5097692;27;44906;-91
2021/08/08 05:49:11;;;;;;;;;6.33;3.00;;;;;16.00;62.36;100780.44;5100265;27;45213;-90
2021/08/08 05:51:40;;;;;;;;;6.33;4.00;;;;;16.02;62.46;100781.22;5081878;27;47759;-91
2021/08/08 05:54:05;;;;;;;;;5.00;3.00;;;;;16.03;62.20;100786.34;5081120;27;45984;-90
2021/08/08 05:56:31;;;;;;;;;5.33;5.00;;;;;16.05;62.09;100783.66;5118157;27;45469;-90
2021/08/08 05:58:56;;;;;;;;;4.00;4.00;;;;;16.04;62.30;100784.59;5120512;27;45523;-89
2021/08/08 06:01:21;;;;;;;;;4.00;4.00;;;;;16.05;62.26;100788.91;5120264;27;45438;-93
2021/08/08 06:03:47;;;;;;;;;5.75;4.00;;;;;16.02;62.19;100794.34;5110016;27;45352;-90
2021/08/08 06:06:12;;;;;;;;;7.00;4.00;;;;;16.02;62.12;100799.59;5110302;27;45648;-91
2021/08/08 06:08:38;;;;;;;;;3.00;3.00;;;;;15.99;62.15;100799.75;5101464;27;45498;-90
2021/08/08 06:11:05;;;;;;;;;5.25;3.75;;;;;15.99;62.39;100805.00;5101489;27;46597;-91
2021/08/08 06:13:30;;;;;;;;;3.67;3.33;;;;;16.00;62.52;100802.31;5119577;27;45367;-91
2021/08/08 06:15:56;;;;;;;;;4.00;4.00;;;;;15.99;62.71;100803.25;5115976;27;45385;-91
2021/08/08 06:18:22;;;;;;;;;6.00;4.00;;;;;16.02;62.25;100808.28;5101193;27;45384;-90
2021/08/08 06:20:47;;;;;;;;;10.75;3.75;;;;;16.02;62.57;100810.09;5099291;27;45681;-90
2021/08/08 06:23:15;;;;;;;;;6.75;3.50;;;;;16.04;62.35;100813.47;5100384;27;45448;-91
2021/08/08 06:25:40;;;;;;;;;3.33;3.00;;;;;16.01;62.27;100816.25;5098197;27;45468;-91
2021/08/08 06:28:06;;;;;;;;;4.00;4.00;;;;;16.02;62.44;100820.59;5116497;27;45321;-91
2021/08/08 06:30:32;;;;;;;;;4.00;3.00;;;;;16.07;62.17;100815.06;5104256;27;45422;-90
2021/08/08 06:32:57;;;;;;;;;6.50;4.00;;;;;16.08;62.36;100819.38;5107439;27;45516;-91
2021/08/08 06:35:23;;;;;;;;;4.00;3.67;;;;;16.09;62.33;100815.81;5110631;27;45423;-89
2021/08/08 06:37:48;;;;;;;;;6.00;5.00;;;;;16.11;62.23;100814.78;5104685;27;45367;-90
2021/08/08 06:40:14;;;;;;;;;5.75;5.00;;;;;16.15;62.28;100823.31;5097275;27;47752;-90
2021/08/08 06:42:39;;;;;;;;;5.25;4.00;;;;;16.20;61.99;100828.31;5099195;27;45892;-90
2021/08/08 06:45:06;;;;;;;;;5.75;4.00;;;;;16.25;61.79;100842.88;5099260;27;45408;-91
2021/08/08 06:47:31;;;;;;;;;3.67;2.67;;;;;16.24;61.87;100830.69;5098994;27;45453;-90
2021/08/08 06:49:57;;;;;;;;;5.00;4.67;;;;;16.26;61.72;100827.97;5100128;27;45399;-90
2021/08/08 06:52:23;;;;;;;;;3.33;3.33;;;;;16.26;61.84;100835.84;5097792;27;45346;-91
2021/08/08 06:54:48;;;;;;;;;3.67;2.00;;;;;16.27;61.43;100830.50;5099194;27;45410;-90
2021/08/08 06:57:27;;;;;;;;;5.67;3.67;;;;;16.27;61.67;100825.25;5111968;27;45356;-90
2021/08/08 06:59:53;;;;;;;;;6.33;4.00;;;;;16.28;61.80;100828.72;5086314;27;47356;-91
2021/08/08 07:02:19;;;;;;;;;6.33;4.00;;;;;16.32;61.64;100837.25;5093215;27;45732;-91
2021/08/08 07:05:17;;;;;;;;;5.67;3.33;;;;;16.36;61.40;100851.91;5106014;27;45636;-92
2021/08/08 07:07:56;;;;;;;;;5.00;4.00;;;;;16.35;61.32;100853.69;5108877;27;45327;-92
2021/08/08 07:10:45;;;;;;;;;4.67;3.00;;;;;16.32;61.69;100848.59;5099039;27;46953;-92
2021/08/08 07:13:12;;;;;;;;;7.00;4.00;;;;;16.37;61.71;100854.44;5035386;28;45536;-93
2021/08/08 07:15:43;;;;;;;;;4.67;4.00;;;;;16.37;61.67;100843.94;5034509;28;45372;-91
2021/08/08 07:18:29;;;;;;;;;;;;;;;;;;;;;
2021/08/08 07:21:05;;;;;;;;;5.00;5.00;;;;;16.50;61.52;100846.69;5026577;28;75120;-92
2021/08/08 07:23:53;;;;;;;;;4.67;4.00;;;;;16.54;61.16;100847.34;5029766;28;45508;-91
2021/08/08 07:26:19;;;;;;;;;6.00;4.00;;;;;16.58;62.00;100851.50;5010193;28;45488;-92
2021/08/08 07:29:17;;;;;;;;;;;;;;;;;;;;;
2021/08/08 07:32:00;;;;;;;;;;;;;;;;;;;;;
2021/08/08 07:35:26;;;;;;;;;2.33;2.33;;;;;16.77;60.81;100853.84;5014125;28;71768;-93
2021/08/08 07:38:38;;;;;;;;;6.33;4.00;;;;;16.82;60.63;100859.66;4932968;28;45954;-92
2021/08/08 07:41:11;;;;;;;;;4.00;3.67;;;;;16.90;60.50;100866.25;4883061;28;45474;-91
2021/08/08 07:43:55;;;;;;;;;8.33;5.00;;;;;16.92;60.20;100859.97;4898882;28;45863;-92
2021/08/08 07:50:00;;;;;;;;;6.33;3.67;;;;;16.85;59.94;100873.56;4872559;29;45412;-91
2021/08/08 07:53:07;;;;;;;;;4.33;4.00;;;;;16.82;59.91;100877.22;4846615;29;45511;-91
2021/08/08 07:55:51;;;;;;;;;;;;;;;;;;;;;
2021/08/08 07:58:43;;;;;;;;;5.00;4.33;;;;;16.81;60.39;100886.88;4860273;29;71652;-92
2021/08/08 08:01:21;;;;;;;;;;;;;;;;;;;;;
2021/08/08 08:03:49;;;;;;;;;6.33;2.33;;;;;16.89;60.37;100899.56;4878337;29;64900;-93
2021/08/08 08:06:31;;;;;;;;;7.00;3.67;;;;;16.91;59.89;100905.59;4879142;29;47068;-91
2021/08/08 08:09:35;;;;;;;;;;;;;;;;;;;;;
2021/08/08 08:12:29;;;;;;;;;6.00;4.00;;;;;16.89;59.99;100899.56;4859387;29;67942;-91
2021/08/08 08:15:18;;;;;;;;;;;;;;;;;;;;;
2021/08/08 08:18:37;;;;;;;;;;;;;;;;;;;;;
2021/08/08 08:25:18;;;;;;;;;;;;;;;;;;;;;
2021/08/08 08:28:32;;;;;;;;;;;;;;;;;;;;;
2021/08/08 08:35:01;;;;;;;;;4.67;3.67;;;;;17.24;59.32;100903.66;4859957;29;45294;-91
2021/08/08 08:38:16;;;;;;;;;7.33;4.33;;;;;17.28;59.15;100920.06;4859818;29;45593;-91
2021/08/08 08:41:05;;;;;;;;;4.33;4.33;;;;;17.35;59.42;100922.25;4871975;29;45546;-91
2021/08/08 08:43:45;;;;;;;;;6.33;5.00;;;;;17.42;59.28;100927.97;4863694;29;45564;-91
2021/08/08 08:46:20;;;;;;;;;6.67;5.00;;;;;17.46;58.21;100926.00;4878208;29;45844;-91
2021/08/08 08:48:46;;;;;;;;;6.67;4.00;;;;;17.42;58.18;100921.84;4878271;29;45595;-90
2021/08/08 08:51:45;;;;;;;;;4.00;4.00;;;;;17.45;58.46;100927.75;4879678;29;45376;-91
2021/08/08 08:54:26;;;;;;;;;6.00;4.00;;;;;17.55;57.82;100929.84;4859761;29;47941;-91
2021/08/08 09:04:35;;;;;;;;;7.00;4.67;;;;;17.67;56.96;100930.88;4768503;29;45504;-93
2021/08/08 09:07:43;;;;;;;;;3.67;2.33;;;;;17.70;56.56;100930.66;4772667;29;47092;-92
2021/08/08 09:11:04;;;;;;;;;6.00;4.00;;;;;17.82;57.00;100931.66;4802333;29;45371;-92
2021/08/08 09:13:59;;;;;;;;;5.00;3.33;;;;;17.97;57.41;100928.03;4805297;29;45704;-92
2021/08/08 09:16:48;;;;;;;;;6.67;5.00;;;;;18.06;57.03;100920.50;4815586;29;45661;-92
2021/08/08 09:19:18;;;;;;;;;4.00;4.00;;;;;18.23;56.88;100941.34;4859622;29;47203;-91
2021/08/08 09:21:58;;;;;;;;;5.33;4.00;;;;;18.35;56.29;100934.44;4845881;29;46679;-92
2021/08/08 09:25:05;;;;;;;;;5.00;3.00;;;;;18.43;55.76;100933.94;4862724;29;45506;-93
2021/08/08 09:31:16;;;;;;;;;;;;;;;;;;;;;
2021/08/08 09:34:54;;;;;;;;;4.67;4.00;;;;;18.58;55.12;100947.88;4848436;29;77942;-92
2021/08/08 09:37:09;;;;;;;;;5.00;4.00;;;;;18.63;54.38;100951.03;4885645;29;45365;-92
2021/08/08 09:39:47;;;;;;;;;5.00;3.00;;;;;18.63;54.92;100948.41;4909586;28;45549;-93
2021/08/08 09:42:40;;;;;;;;;5.00;3.00;;;;;18.64;55.00;100949.25;4928974;28;47178;-92
2021/08/08 09:45:30;;;;;;;;;2.67;2.33;;;;;18.71;55.06;100955.81;4942375;28;45349;-91
2021/08/08 09:48:29;;;;;;;;;6.00;4.00;;;;;18.66;53.74;100947.38;4957729;28;45448;-92
2021/08/08 09:51:47;;;;;;;;;;;;;;;;;;;;;
2021/08/08 09:54:56;;;;;;;;;2.00;2.00;;;;;18.64;53.63;100943.97;4952874;28;45520;-91
2021/08/08 09:58:17;;;;;;;;;2.67;2.00;;;;;18.68;53.88;100933.13;4947165;28;45247;-92
2021/08/08 10:01:13;;;;;;;;;;;;;;;;;;;;;
2021/08/08 10:03:47;;;;;;;;;4.00;3.00;;;;;19.00;52.97;100958.25;4968990;28;65304;-91
2021/08/08 10:06:33;;;;;;;;;3.00;3.00;;;;;19.09;52.69;100962.94;4953057;28;46904;-91
2021/08/08 10:09:15;;;;;;;;;3.67;2.00;;;;;19.19;52.48;100967.56;4941375;28;44832;-92
2021/08/08 10:11:46;;;;;;;;;6.00;5.00;;;;;19.28;52.77;100968.72;4940189;28;45488;-91
2021/08/08 10:14:18;;;;;;;;;3.33;3.00;;;;;19.39;52.04;100962.72;4968334;28;45683;-91
2021/08/08 10:16:51;;;;;;;;;2.33;2.00;;;;;19.54;52.26;100966.06;5032104;28;45826;-92
2021/08/08 10:19:38;;;;;;;;;;;;;;;;;;;;;
2021/08/08 10:22:07;;;;;;;;;5.00;2.67;;;;;19.93;50.58;100968.59;5018274;28;67883;-92
2021/08/08 10:27:53;;;;;;;;;5.33;3.33;;;;;20.28;49.42;100965.22;4981947;28;45624;-91
2021/08/08 10:30:35;;;;;;;;;4.67;2.00;;;;;20.46;49.06;100970.94;5015099;28;46563;-91
2021/08/08 10:33:12;;;;;;;;;4.67;3.67;;;;;20.63;48.43;100971.47;5016519;28;45286;-92
2021/08/08 10:36:13;;;;;;;;;3.00;2.67;;;;;20.77;48.79;100970.41;5001672;28;45548;-92
2021/08/08 10:42:52;;;;;;;;;;;;;;;;;;;;;
2021/08/08 10:52:16;;;;;;;;;;;;;;;;;;;;;
2021/08/08 10:58:21;;;;;;;;;2.00;2.00;;;;;21.04;47.08;100972.81;4948990;28;45543;-91
2021/08/08 11:01:50;;;;;;;;;;;;;;;;;;;;;
2021/08/08 11:05:01;;;;;;;;;3.67;2.00;;;;;21.44;45.14;100958.25;4944697;28;75134;-92
2021/08/08 11:07:58;;;;;;;;;2.00;2.00;;;;;21.62;46.18;100971.84;4934327;28;45479;-92
2021/08/08 11:10:44;;;;;;;;;2.00;2.00;;;;;21.87;45.97;100966.44;4934669;28;45671;-91
2021/08/08 11:20:34;;;;;;;;;2.00;2.00;;;;;22.52;42.82;100958.53;4947999;28;45723;-92
2021/08/08 11:26:50;;;;;;;;;1.67;1.33;;;;;22.86;43.10;100956.66;4862986;29;44834;-92
2021/08/08 11:29:53;;;;;;;;;;;;;;;;;;;;;
2021/08/08 11:32:29;;;;;;;;;1.33;1.33;;;;;23.37;43.57;100960.25;4858513;29;72838;-92
2021/08/08 11:35:34;;;;;;;;;;;;;;;;;;;;;
2021/08/08 11:42:57;;;;;;;;;;;;;;;;;;;;;
2021/08/08 11:46:45;;;;;;;;;;;;;;;;;;;;;
2021/08/08 11:49:25;;;;;;;;;2.00;1.00;;;;;23.53;41.69;100983.69;4809056;29;45571;-93
2021/08/08 11:52:25;;;;;;;;;1.67;1.00;;;;;23.27;41.94;100975.31;4792893;29;45653;-92
2021/08/08 11:55:35;;;;;;;;;;;;;;;;;;;;;
2021/08/08 11:58:38;;;;;;;;;;;;;;;;;;;;;
2021/08/08 12:01:45;;;;;;;;;1.67;1.67;;;;;22.46;43.13;100969.63;4833220;29;45617;-93
2021/08/08 12:08:09;;;;;;;;;2.33;2.33;;;;;21.99;44.04;100999.06;4757252;29;45673;-93
2021/08/08 12:11:31;;;;;;;;;2.33;2.00;;;;;21.72;44.15;101001.13;4758706;29;45513;-94
2021/08/08 12:14:07;;;;;;;;;1.67;1.00;;;;;21.47;45.04;101008.31;4737184;29;45459;-92
2021/08/08 12:16:41;;;;;;;;;3.33;1.67;;;;;21.24;46.27;101012.75;4749641;29;45648;-92
2021/08/08 12:19:21;;;;;;;;;5.00;0.67;;;;;21.05;47.25;101013.31;4767822;29;46856;-92
2021/08/08 12:21:58;;;;;;;;;2.00;2.00;;;;;20.86;47.84;101005.94;4772013;29;45623;-92
2021/08/08 12:24:36;;;;;;;;;4.00;2.33;;;;;20.72;48.98;101005.16;4798617;29;45511;-92
2021/08/08 12:27:28;;;;;;;;;4.67;2.33;;;;;20.71;49.33;101003.47;4823578;29;45460;-92
2021/08/08 12:30:11;;;;;;;;;6.33;3.33;;;;;20.78;49.21;101002.03;4841099;29;46733;-92
2021/08/08 12:32:38;;;;;;;;;5.00;4.67;;;;;20.81;50.26;101009.75;4841605;29;45668;-92
2021/08/08 12:35:33;;;;;;;;;;;;;;;;;;;;;
2021/08/08 12:41:42;;;;;;;;;1.00;1.00;;;;;20.74;53.06;101008.50;4845774;29;45677;-94
2021/08/08 12:44:39;;;;;;;;;;;;;;;;;;;;;
2021/08/08 12:47:34;;;;;;;;;;;;;;;;;;;;;
2021/08/08 12:53:27;;;;;;;;;2.67;2.67;;;;;21.35;54.45;100999.53;4995087;28;45574;-93
2021/08/08 12:56:11;;;;;;;;;2.67;2.33;;;;;21.43;54.09;101003.41;4994512;28;45333;-93
2021/08/08 12:58:41;;;;;;;;;2.33;1.33;;;;;21.59;54.60;101001.22;4998783;28;45722;-92
2021/08/08 13:01:21;;;;;;;;;3.00;1.67;;;;;21.79;53.38;101012.06;4981835;28;45390;-94
2021/08/08 13:04:09;;;;;;;;;2.67;1.00;;;;;22.03;53.55;101008.41;4966706;28;47241;-93
2021/08/08 13:06:43;;;;;;;;;0.33;0.33;;;;;22.35;52.51;101012.91;4970098;28;45417;-92
2021/08/08 13:09:14;;;;;;;;;2.00;1.33;;;;;22.54;51.89;100998.19;4995855;28;45373;-92
2021/08/08 13:11:50;;;;;;;;;2.00;1.00;;;;;22.70;51.46;100995.06;4986842;28;46852;-92
2021/08/08 13:14:18;;;;;;;;;0.00;0.00;;;;;22.85;49.62;100998.25;5006599;28;47022;-92
2021/08/08 13:16:44;;;;;;;;;2.00;1.00;;;;;22.93;49.78;100998.47;5005223;28;45522;-93
2021/08/08 13:22:20;;;;;;;;;2.00;1.00;;;;;23.17;48.59;100996.47;4974349;28;45668;-92
2021/08/08 13:24:46;;;;;;;;;2.33;1.00;;;;;23.39;48.63;101014.09;4977668;28;47025;-93
2021/08/08 13:27:16;;;;;;;;;1.33;1.00;;;;;23.56;48.93;101004.63;4962321;28;45474;-93
2021/08/08 13:29:53;;;;;;;;;3.00;2.00;;;;;23.67;48.05;101008.19;4981027;28;45557;-92
2021/08/08 13:32:22;;;;;;;;;1.67;0.00;;;;;23.64;47.42;101013.78;4987924;28;45015;-90
2021/08/08 13:34:47;;;;;;;;;1.00;0.00;;;;;23.64;47.00;101017.25;5016710;28;47951;-90
2021/08/08 13:37:16;;;;;;;;;3.00;1.00;;;;;23.59;47.01;101007.03;5017646;28;45595;-90
2021/08/08 13:39:44;;;;;;;;;1.00;1.00;;;;;23.59;46.84;101014.16;5014351;28;45366;-90
2021/08/08 13:43:05;;;;;;;;;1.00;1.00;;;;;23.51;46.03;101011.34;4992457;28;45485;-91